LEJRGEML

Guest
Details From LEJR - Jerez
To GEML - Melilla
Flight Number -
Tags Routegen
Created
Modified
Stats Distance 185 nm / 343 km
Max Altitude 0 ft / 0 m
Waypoints 4
Social Downloads 2
Likes 0
Share VATSIM

Download

Looking for another format? Having issues loading an existing format? Contact us
Advertisement - Login to hide

Notes

None

Route

LEJR +36.60_-006.13 +35.65_-003.26 GEML

ID Type Via Altitude Latitude Longitude Leg Dist Tot Dist Heading (true) Name
O LEJR APT - 0 ft / 0 m 36.73497˚ -6.06481˚ - 0 nm - -
+36.60_-006.13 DME - 0 ft / 0 m 36.60014˚ -6.13041˚ 8 nm 8 nm 201° / 201° -
+35.65_-003.26 DME - 0 ft / 0 m 35.64712˚ -3.25692˚ 150 nm 159 nm 111° / 113° -
O GEML APT - 0 ft / 0 m 35.28586˚ -2.96118˚ 26 nm 185 nm 146° / 146° -

Altitude Profile

Advertisement - Login to hide

Weather


0- 5 10 15 20 25 30 35+ Temperature / ° C

Clouds and Precipitation
Forecast for 2017-12-15 18:00 UTC. Updated 43 minutes ago

Ground ~20,000 ft ~40,000 ft Winds

LEJR

Details ICAO LEJR (XRY)
Name Jerez
Region Spain
Timezone Europe/Madrid (UTC+1.0)
Stats Elevation 93 ft / 28 m (AMSL)
Location 36.744622° -6.060110°
Runways 2
Magnetic Variation 1.338° W

METAR

LEJR 151800Z 25009KT 9999 SCT020 BKN050 16/15 Q1015

Decode

TAF

TAF LEJR 151700Z 1518/1618 25010KT 9999 SCT015 BKN025 TX15/1614Z TN04/1608Z PROB40 TEMPO 1518/1523 4000 RA BKN014 BECMG 1522/1601 35008KT CAVOK

Decode

Departure Runways

ID Width Length Bearing (true) Bearing (mag) Surface Threshold Offset Overrun Length
02 148 ft / 45 m 7,559 ft / 2,304 m 21.34° 22.68° Asphalt 0 ft / 0 m 0 ft / 0 m
03 148 ft / 45 m 7,559 ft / 2,304 m 21.34° 22.68° Asphalt 0 ft / 0 m 0 ft / 0 m
20 148 ft / 45 m 7,559 ft / 2,304 m 201.34° 202.68° Asphalt 0 ft / 0 m 0 ft / 0 m
21 148 ft / 45 m 7,559 ft / 2,304 m 201.34° 202.68° Asphalt 0 ft / 0 m 0 ft / 0 m

GEML

Details ICAO GEML (MLN)
Name MELILLA
Region Ceuta and Melilla
Timezone Africa/Casablanca (UTC+0.0)
Stats Elevation 156 ft / 48 m (AMSL)
Location 35.280374° -2.956708°
Runways 1
Magnetic Variation 0.453° W

METAR

GEML 151800Z 26009KT 210V300 9999 FEW014 17/13 Q1014

Decode

TAF

TAF GEML 151400Z 1515/1615 26009KT 9999 SCT030 TX18/1515Z TN13/1607Z TEMPO 1515/1516 27015G28KT TEMPO 1604/1612 4000 RA BKN014 PROB40 TEMPO 1609/1615 10010KT

Decode

Destination Runways

ID Width Length Bearing (true) Bearing (mag) Surface Threshold Offset Overrun Length
15 148 ft / 45 m 4,811 ft / 1,466 m 146.39° 146.84° Asphalt 755 ft / 230 m 0 ft / 0 m
33 148 ft / 45 m 4,811 ft / 1,466 m 326.40° 326.85° Asphalt 0 ft / 0 m 0 ft / 0 m

Popular Alternatives